Time;durP1;ratioP1;P1;durP2;ratioP2;P2;SDS_P1;SDS_P2;PMS_P1;PMS_P2;Temp;Humidity;BMP_temperature;BMP_pressure;BME280_temperature;BME280_humidity;BME280_pressure;Samples;Min_cycle;Max_cycle;Signal;HPM_P1;HPM_P2
2023/12/05 00:01:38;;;;;;;60.92;24.52;;;-0.80;99.90;;;-1.16;100.00;99593.00;5029587;28;20482;-84
2023/12/05 00:04:04;;;;;;;66.93;26.77;;;-0.90;99.90;;;-1.07;100.00;99609.91;5027268;28;20041;-84
2023/12/05 00:06:30;;;;;;;58.65;23.70;;;-0.80;99.90;;;-1.11;100.00;99608.56;5031106;28;20051;-83
2023/12/05 00:08:55;;;;;;;63.22;25.33;;;-0.90;99.90;;;-1.13;100.00;99605.22;5008420;28;20045;-83
2023/12/05 00:11:21;;;;;;;68.15;25.77;;;-0.90;99.90;;;-1.14;100.00;99594.69;5024999;28;20485;-84
2023/12/05 00:13:47;;;;;;;67.28;27.17;;;-0.80;99.90;;;-1.09;100.00;99595.84;5038363;28;20191;-86
2023/12/05 00:16:13;;;;;;;67.63;26.52;;;-0.90;99.90;;;-1.11;100.00;99589.81;5032445;28;20505;-82
2023/12/05 00:18:39;;;;;;;68.20;25.70;;;-0.90;99.90;;;-1.08;100.00;99596.69;5027115;28;20034;-83
2023/12/05 00:21:05;;;;;;;62.00;26.27;;;-0.80;99.90;;;-1.06;100.00;99590.19;5046370;28;20041;-82
2023/12/05 00:23:31;;;;;;;68.75;26.70;;;-0.90;99.90;;;-1.08;100.00;99597.50;5042949;28;20115;-82
2023/12/05 00:25:57;;;;;;;72.25;26.13;;;-0.80;99.90;;;-1.12;100.00;99582.78;5024704;28;20046;-83
2023/12/05 00:28:22;;;;;;;73.50;26.80;;;-0.90;99.90;;;-1.04;100.00;99585.50;5033967;28;20164;-83
2023/12/05 00:30:48;;;;;;;65.05;26.90;;;-0.90;99.90;;;-0.99;100.00;99595.69;5017866;28;20044;-82
2023/12/05 00:33:14;;;;;;;69.75;28.45;;;-0.80;99.90;;;-1.07;100.00;99591.16;5027946;28;20052;-83
2023/12/05 00:35:39;;;;;;;68.43;28.48;;;-0.80;99.90;;;-1.09;100.00;99582.44;5015937;28;20156;-85
2023/12/05 00:38:06;;;;;;;75.35;27.35;;;-0.80;99.90;;;-1.02;100.00;99593.34;5030939;28;20497;-83
2023/12/05 00:40:31;;;;;;;75.13;28.08;;;-0.80;99.90;;;-1.17;100.00;99575.28;5038017;28;20091;-84
2023/12/05 00:42:57;;;;;;;77.35;29.00;;;-0.80;99.90;;;-0.97;100.00;99590.16;5035009;28;20168;-84
2023/12/05 00:45:23;;;;;;;70.82;29.42;;;-0.80;99.90;;;-1.03;100.00;99584.50;5024493;28;20042;-84
2023/12/05 00:47:50;;;;;;;64.90;28.00;;;-0.80;99.90;;;-0.95;100.00;99591.66;5042692;28;20148;-85
2023/12/05 00:50:17;;;;;;;68.85;28.30;;;-0.80;99.90;;;-0.98;100.00;99580.47;5022202;28;20080;-83
2023/12/05 00:52:42;;;;;;;72.07;27.75;;;-0.80;99.90;;;-0.89;100.00;99595.50;5016678;28;20430;-83
2023/12/05 00:55:09;;;;;;;73.68;29.08;;;-0.80;99.90;;;-0.91;100.00;99602.88;5031489;28;20065;-84
2023/12/05 00:57:34;;;;;;;66.68;28.63;;;-0.80;99.90;;;-0.95;100.00;99591.66;5017137;28;20499;-84
2023/12/05 01:00:00;;;;;;;78.65;28.52;;;-0.80;99.90;;;-0.88;100.00;99594.50;5021844;28;20038;-84
2023/12/05 01:02:26;;;;;;;71.85;29.58;;;-0.80;99.90;;;-0.83;100.00;99600.19;5013121;28;20042;-83
2023/12/05 01:04:52;;;;;;;70.97;29.20;;;-0.70;99.90;;;-0.89;100.00;99582.97;5035442;28;20038;-84
2023/12/05 01:07:19;;;;;;;75.78;30.25;;;-0.70;99.90;;;-0.92;100.00;99590.50;5024890;28;20038;-84
2023/12/05 01:09:45;;;;;;;73.70;28.92;;;-0.80;99.90;;;-0.92;100.00;99595.84;5017349;28;20080;-83
2023/12/05 01:12:11;;;;;;;69.45;28.70;;;-0.80;99.90;;;-0.91;100.00;99586.81;5024362;28;20034;-83
2023/12/05 01:14:37;;;;;;;64.03;27.05;;;-0.70;99.90;;;-0.79;100.00;99590.84;5029029;28;20033;-83
2023/12/05 01:17:03;;;;;;;67.82;28.65;;;-0.70;99.90;;;-0.80;100.00;99586.47;5012780;28;20034;-84
2023/12/05 01:19:30;;;;;;;72.40;28.13;;;-0.70;99.90;;;-0.79;100.00;99590.84;5021691;28;20492;-83
2023/12/05 01:21:56;;;;;;;77.22;29.95;;;-0.70;99.90;;;-0.87;100.00;99574.75;5002280;28;20044;-83
2023/12/05 01:24:22;;;;;;;65.30;28.35;;;-0.70;99.90;;;-0.81;100.00;99582.13;5031166;28;20041;-84
2023/12/05 01:26:48;;;;;;;68.57;28.75;;;-0.70;99.90;;;-0.80;100.00;99589.13;5027315;28;20478;-83
2023/12/05 01:29:14;;;;;;;69.05;27.48;;;-0.70;99.90;;;-0.88;100.00;99586.47;5019580;28;20046;-82
2023/12/05 01:31:40;;;;;;;73.20;29.45;;;-0.70;99.90;;;-0.81;100.00;99589.31;5027957;28;20358;-82
2023/12/05 01:34:06;;;;;;;69.68;28.55;;;-0.70;99.90;;;-0.94;100.00;99574.59;5028484;28;20092;-83
2023/12/05 01:36:31;;;;;;;69.45;28.95;;;-0.70;99.90;;;-0.94;100.00;99574.59;5028781;28;20038;-84
2023/12/05 01:38:57;;;;;;;68.95;29.00;;;-0.70;99.90;;;-0.90;100.00;99572.41;5020914;28;20539;-83
2023/12/05 01:41:23;;;;;;;65.80;26.67;;;-0.70;99.90;;;-0.88;100.00;99591.84;5023688;28;20163;-85
2023/12/05 01:43:49;;;;;;;68.68;28.83;;;-0.80;99.90;;;-0.87;100.00;99585.47;5012338;28;20046;-84
2023/12/05 01:46:16;;;;;;;71.43;28.13;;;-0.80;99.90;;;-0.93;100.00;99578.97;5024147;28;20194;-86
2023/12/05 01:48:44;;;;;;;80.38;30.13;;;-0.80;99.90;;;-0.94;100.00;99577.25;5029818;28;20044;-84
2023/12/05 01:51:10;;;;;;;;;;;-0.80;99.90;;;-0.85;100.00;99582.63;5025258;28;20120;-83
2023/12/05 01:53:40;;;;;;;67.63;28.33;;;-0.80;99.90;;;-0.87;100.00;99586.31;5018149;28;19958;-83
2023/12/05 01:56:09;;;;;;;72.13;27.27;;;-0.80;99.90;;;-0.94;100.00;99571.09;5022488;28;20049;-83
2023/12/05 01:58:37;;;;;;;66.28;29.15;;;-0.80;99.90;;;-0.89;100.00;99579.44;5025568;28;20038;-83
2023/12/05 02:01:05;;;;;;;69.00;29.38;;;-0.80;99.90;;;-0.92;100.00;99569.06;5029216;28;20168;-83
2023/12/05 02:03:31;;;;;;;;;;;-0.80;99.90;;;-0.81;100.00;99576.75;4999637;28;20069;-82
2023/12/05 02:05:58;;;;;;;72.97;30.25;;;-0.70;99.90;;;-0.89;100.00;99569.59;5028081;28;19970;-83
2023/12/05 02:08:29;;;;;;;69.47;28.45;;;-0.70;99.90;;;-0.88;100.00;99559.69;5019089;28;20045;-83
2023/12/05 02:10:55;;;;;;;76.63;29.70;;;-0.70;99.90;;;-0.83;100.00;99559.19;5029764;28;20053;-82
2023/12/05 02:13:21;;;;;;;73.25;30.00;;;-0.70;99.90;;;-0.84;100.00;99566.38;5029250;28;20041;-84
2023/12/05 02:15:58;;;;;;;71.35;28.20;;;-0.70;99.90;;;-0.84;100.00;99555.66;5023451;28;20037;-83
2023/12/05 02:18:33;;;;;;;66.18;28.15;;;-0.70;99.90;;;-0.97;100.00;99558.84;5005080;28;20099;-84
2023/12/05 02:21:27;;;;;;;71.35;30.25;;;-0.70;99.90;;;-0.88;100.00;99559.69;5031858;28;20117;-84
2023/12/05 02:24:21;;;;;;;66.40;27.77;;;-0.70;99.90;;;-0.87;100.00;99556.00;5018405;28;20049;-83
2023/12/05 02:27:15;;;;;;;73.50;29.60;;;-0.70;99.90;;;-0.75;100.00;99560.03;5026034;28;20045;-82
2023/12/05 02:29:50;;;;;;;69.55;29.52;;;-0.70;99.90;;;-0.80;100.00;99546.28;5027664;28;20049;-83
2023/12/05 02:32:16;;;;;;;69.85;28.77;;;-0.70;99.90;;;-0.81;100.00;99538.44;5032936;28;20046;-82
2023/12/05 02:34:42;;;;;;;72.95;29.50;;;-0.70;99.90;;;-0.78;100.00;99538.94;5019141;28;20131;-83
2023/12/05 02:37:22;;;;;;;72.63;28.95;;;-0.70;99.90;;;-0.73;100.00;99543.78;5024251;28;20037;-82
2023/12/05 02:40:17;;;;;;;69.50;28.85;;;-0.70;99.90;;;-0.80;100.00;99534.75;5016995;28;20029;-83
2023/12/05 02:42:46;;;;;;;77.60;30.52;;;-0.70;99.90;;;-0.73;100.00;99522.34;5025789;28;20056;-82
2023/12/05 02:45:19;;;;;;;77.00;32.47;;;-0.70;99.90;;;-0.80;100.00;99524.84;5044125;28;20041;-82
2023/12/05 02:47:48;;;;;;;75.45;31.85;;;-0.70;99.90;;;-0.79;100.00;99534.59;5028819;28;20140;-82
2023/12/05 02:50:18;;;;;;;75.28;30.48;;;-0.70;99.90;;;-0.81;100.00;99523.19;5026673;28;20504;-84
2023/12/05 02:52:44;;;;;;;77.10;32.30;;;-0.70;99.90;;;-0.84;100.00;99525.38;5018922;28;20092;-83
2023/12/05 02:55:10;;;;;;;76.47;30.25;;;-0.70;99.90;;;-0.80;100.00;99516.00;5032592;28;20103;-83
2023/12/05 02:57:36;;;;;;;79.55;31.13;;;-0.70;99.90;;;-0.95;100.00;99497.94;5017634;28;20038;-83
2023/12/05 03:00:04;;;;;;;76.25;29.92;;;-0.70;99.90;;;-0.90;100.00;99502.78;5024710;28;20057;-84
2023/12/05 03:02:30;;;;;;;;;;;-0.70;99.90;;;-0.92;100.00;99510.16;5023659;28;20041;-84
2023/12/05 03:04:55;;;;;;;72.93;31.98;;;-0.70;99.90;;;-0.87;100.00;99514.00;5011613;28;19940;-83
2023/12/05 03:07:21;;;;;;;80.85;31.75;;;-0.70;99.90;;;-0.75;100.00;99522.53;5018811;28;20049;-83
2023/12/05 03:09:47;;;;;;;71.32;30.42;;;-0.60;99.90;;;-0.83;100.00;99506.44;5022741;28;20436;-85
2023/12/05 03:12:13;;;;;;;77.35;31.40;;;-0.60;99.90;;;-0.82;100.00;99508.13;5028785;28;20042;-84
2023/12/05 03:14:38;;;;;;;75.38;31.08;;;-0.60;99.90;;;-0.71;100.00;99522.19;5033845;28;20072;-84
2023/12/05 03:17:04;;;;;;;74.97;33.58;;;-0.60;99.90;;;-0.82;100.00;99508.13;5018278;28;20033;-85
2023/12/05 03:19:30;;;;;;;76.30;32.65;;;-0.60;99.90;;;-0.77;100.00;99518.34;5022611;28;20041;-83
2023/12/05 03:21:55;;;;;;;78.53;31.85;;;-0.60;99.90;;;-0.77;100.00;99505.78;5031508;28;20170;-82
2023/12/05 03:24:21;;;;;;;75.88;32.40;;;-0.70;99.90;;;-0.81;100.00;99512.47;5010846;28;20042;-86
2023/12/05 03:26:47;;;;;;;74.70;31.85;;;-0.60;99.90;;;-0.71;100.00;99520.31;5032854;28;20034;-83
2023/12/05 03:29:13;;;;;;;72.93;31.35;;;-0.60;99.90;;;-0.75;100.00;99519.84;5036378;28;20129;-83
2023/12/05 03:31:42;;;;;;;72.90;31.33;;;-0.60;99.90;;;-0.68;100.00;99519.16;5028975;28;20034;-83
2023/12/05 03:34:08;;;;;;;69.50;31.52;;;-0.60;99.90;;;-0.72;100.00;99521.34;5026625;28;20493;-84
2023/12/05 03:36:34;;;;;;;73.30;31.52;;;-0.60;99.90;;;-0.72;100.00;99521.34;5034879;28;20033;-83
2023/12/05 03:38:59;;;;;;;70.97;32.45;;;-0.60;99.90;;;-0.83;100.00;99509.13;5026477;28;20458;-83
2023/12/05 03:41:25;;;;;;;75.20;31.15;;;-0.70;99.90;;;-0.75;100.00;99514.50;5023555;28;20046;-82
2023/12/05 03:43:51;;;;;;;69.85;31.13;;;-0.70;99.90;;;-0.79;100.00;99509.63;5036238;28;20022;-84
2023/12/05 03:46:17;;;;;;;69.57;30.52;;;-0.70;99.90;;;-0.68;100.00;99511.13;5027525;28;20045;-82
2023/12/05 03:48:42;;;;;;;76.70;30.15;;;-0.60;99.90;;;-0.65;100.00;99518.81;5022298;28;20501;-82
2023/12/05 03:51:08;;;;;;;70.80;30.55;;;-0.60;99.90;;;-0.72;100.00;99521.34;5012683;28;20034;-84
2023/12/05 03:53:34;;;;;;;71.38;29.77;;;-0.60;99.90;;;-0.71;100.00;99522.19;5027473;28;20057;-83
2023/12/05 03:56:00;;;;;;;71.40;30.58;;;-0.70;99.90;;;-0.78;100.00;99511.31;5028654;28;20049;-83
2023/12/05 03:58:25;;;;;;;70.65;30.35;;;-0.70;99.90;;;-0.76;100.00;99520.84;5021373;28;20489;-83
2023/12/05 04:00:51;;;;;;;71.28;31.35;;;-0.70;99.90;;;-0.68;100.00;99521.84;5037782;28;20056;-83
2023/12/05 04:03:19;;;;;;;73.20;32.67;;;-0.70;99.90;;;-0.68;100.00;99519.16;5020103;28;20045;-84
2023/12/05 04:05:44;;;;;;;73.45;31.73;;;-0.70;99.90;;;-0.75;100.00;99519.84;5032378;28;20036;-83
2023/12/05 04:08:10;;;;;;;72.47;31.17;;;-0.70;99.90;;;-0.82;100.00;99510.81;5027930;28;20398;-81
2023/12/05 04:10:36;;;;;;;73.65;31.00;;;-0.70;99.90;;;-0.83;100.00;99509.13;5021852;28;20049;-83
2023/12/05 04:13:02;;;;;;;71.30;29.35;;;-0.70;99.90;;;-0.76;100.00;99511.97;5026573;28;20037;-82
2023/12/05 04:15:27;;;;;;;66.03;30.25;;;-0.70;99.90;;;-0.69;100.00;99517.50;5039904;28;20045;-81
2023/12/05 04:17:53;;;;;;;71.30;30.02;;;-0.70;99.90;;;-0.81;100.00;99512.47;5016770;28;20038;-83
2023/12/05 04:20:19;;;;;;;70.30;31.48;;;-0.70;99.90;;;-0.76;100.00;99518.19;5007886;28;20040;-82
2023/12/05 04:22:45;;;;;;;69.80;29.58;;;-0.70;99.90;;;-0.75;100.00;99516.31;5034192;28;20049;-82
2023/12/05 04:25:11;;;;;;;67.30;30.02;;;-0.70;99.90;;;-0.80;100.00;99514.16;5026424;28;20041;-83
2023/12/05 04:27:37;;;;;;;73.60;30.48;;;-0.70;99.90;;;-0.80;100.00;99518.69;5031669;28;20521;-82
2023/12/05 04:30:04;;;;;;;69.40;29.60;;;-0.70;99.90;;;-0.69;100.00;99514.81;4999166;28;20136;-81
2023/12/05 04:32:30;;;;;;;76.33;32.23;;;-0.70;99.90;;;-0.75;100.00;99514.50;5028921;28;20044;-81
2023/12/05 04:34:55;;;;;;;64.50;28.95;;;-0.70;99.90;;;-0.63;100.00;99517.66;5019806;28;20299;-82
2023/12/05 04:37:21;;;;;;;61.03;27.42;;;-0.60;99.90;;;-0.69;100.00;99514.81;5028843;28;20393;-82
2023/12/05 04:39:47;;;;;;;63.28;27.08;;;-0.60;99.90;;;-0.68;100.00;99519.16;5031547;28;20033;-82
2023/12/05 04:42:12;;;;;;;67.68;30.25;;;-0.60;99.90;;;-0.79;100.00;99505.13;5031014;28;20080;-82
2023/12/05 04:44:38;;;;;;;67.68;27.70;;;-0.60;99.90;;;-0.74;100.00;99516.16;5034669;28;20042;-82
2023/12/05 04:47:04;;;;;;;67.43;29.30;;;-0.60;99.90;;;-0.76;100.00;99499.44;5022559;28;20038;-81
2023/12/05 04:49:30;;;;;;;65.63;28.00;;;-0.60;99.90;;;-0.62;100.00;99511.28;5024672;28;20338;-81
2023/12/05 04:51:56;;;;;;;64.72;27.67;;;-0.60;99.90;;;-0.67;100.00;99510.13;5026990;28;20049;-81
2023/12/05 04:54:22;;;;;;;68.00;28.55;;;-0.60;99.90;;;-0.69;100.00;99514.81;5023842;28;20038;-81
2023/12/05 04:56:48;;;;;;;62.63;27.50;;;-0.60;99.90;;;-0.67;100.00;99507.44;5024936;28;20552;-83
2023/12/05 04:59:14;;;;;;;63.40;27.08;;;-0.60;99.90;;;-0.66;100.00;99501.06;5036408;28;20109;-82
2023/12/05 05:01:39;;;;;;;64.97;25.92;;;-0.60;99.90;;;-0.61;100.00;99504.91;5029498;28;20048;-82
2023/12/05 05:04:05;;;;;;;63.63;28.63;;;-0.60;99.90;;;-0.63;100.00;99516.78;5003203;28;20053;-82
2023/12/05 05:06:31;;;;;;;73.97;29.15;;;-0.60;99.90;;;-0.66;100.00;99517.16;5015733;28;20040;-82
2023/12/05 05:08:56;;;;;;;65.53;27.00;;;-0.60;99.90;;;-0.59;100.00;99505.56;5018908;28;20052;-81
2023/12/05 05:11:23;;;;;;;64.20;26.52;;;-0.60;99.90;;;-0.63;100.00;99514.13;5025868;28;20466;-82
2023/12/05 05:13:49;;;;;;;63.15;26.88;;;-0.60;99.90;;;-0.67;100.00;99499.41;5019797;28;20034;-81
2023/12/05 05:16:14;;;;;;;63.45;26.75;;;-0.60;99.90;;;-0.69;100.00;99509.44;5011895;28;20387;-82
2023/12/05 05:18:40;;;;;;;65.55;26.85;;;-0.60;99.90;;;-0.71;100.00;99500.75;5029404;28;20040;-82
2023/12/05 05:21:06;;;;;;;54.42;24.50;;;-0.60;99.90;;;-0.64;100.00;99517.81;5030585;28;20041;-82
2023/12/05 05:23:33;;;;;;;68.10;26.33;;;-0.70;99.90;;;-0.63;100.00;99512.28;5024170;28;20045;-81
2023/12/05 05:25:59;;;;;;;64.63;27.07;;;-0.70;99.90;;;-0.62;100.00;99503.25;5026839;28;20519;-82
2023/12/05 05:28:25;;;;;;;59.17;26.50;;;-0.60;99.90;;;-0.70;100.00;99497.06;5030640;28;20035;-82
2023/12/05 05:30:54;;;;;;;60.90;27.10;;;-0.60;99.90;;;-0.70;100.00;99505.09;5021232;28;20485;-82
2023/12/05 05:33:28;;;;;;;64.68;26.52;;;-0.70;99.90;;;-0.76;100.00;99491.41;5017881;28;20120;-83
2023/12/05 05:35:54;;;;;;;66.13;27.30;;;-0.70;99.90;;;-0.69;100.00;99504.09;5033407;28;20072;-82
2023/12/05 05:38:20;;;;;;;64.60;25.92;;;-0.60;99.90;;;-0.71;100.00;99500.75;5021445;28;20065;-81
2023/12/05 05:40:47;;;;;;;68.80;27.67;;;-0.70;99.90;;;-0.68;100.00;99501.22;5030073;28;20060;-81
2023/12/05 05:43:13;;;;;;;62.25;25.77;;;-0.70;99.90;;;-0.80;100.00;99498.06;5030140;28;20563;-82
2023/12/05 05:45:39;;;;;;;67.28;28.23;;;-0.70;99.90;;;-0.73;100.00;99490.19;5023958;28;20041;-82
2023/12/05 05:48:05;;;;;;;66.78;27.27;;;-0.70;99.90;;;-0.74;100.00;99497.41;5020631;28;20045;-82
2023/12/05 05:50:30;;;;;;;69.65;28.95;;;-0.70;99.90;;;-0.71;100.00;99487.34;5018405;28;20103;-84
2023/12/05 05:52:56;;;;;;;61.33;25.92;;;-0.70;99.90;;;-0.76;100.00;99480.69;5016794;28;20049;-84
2023/12/05 05:55:24;;;;;;;62.78;26.05;;;-0.70;99.90;;;-0.67;100.00;99502.91;5023095;28;20481;-83
2023/12/05 05:57:52;;;;;;;67.75;26.70;;;-0.70;99.90;;;-0.74;100.00;99502.78;5038686;28;20520;-83
2023/12/05 06:00:18;;;;;;;64.03;28.35;;;-0.70;99.90;;;-0.69;100.00;99501.41;5018143;28;20397;-87
2023/12/05 06:02:44;;;;;;;66.93;28.20;;;-0.70;99.90;;;-0.68;100.00;99505.75;5046495;28;20037;-85
2023/12/05 06:05:10;;;;;;;70.78;30.15;;;-0.70;99.90;;;-0.77;100.00;99491.56;5016844;28;20030;-89
2023/12/05 06:07:37;;;;;;;67.93;27.98;;;-0.70;99.90;;;-0.68;100.00;99500.41;5040158;28;20061;-85
2023/12/05 06:10:03;;;;;;;67.00;28.63;;;-0.70;99.90;;;-0.77;100.00;99503.13;5014041;28;20033;-81
2023/12/05 06:12:29;;;;;;;68.13;29.02;;;-0.70;99.90;;;-0.79;100.00;99488.22;5026187;28;20033;-81
2023/12/05 06:14:55;;;;;;;68.70;28.58;;;-0.70;99.90;;;-0.66;100.00;99501.91;5029841;28;20049;-81
2023/12/05 06:17:21;;;;;;;72.80;28.73;;;-0.70;99.90;;;-0.84;100.00;99486.03;5031119;28;20033;-81
2023/12/05 06:19:46;;;;;;;75.88;28.83;;;-0.70;99.90;;;-0.71;100.00;99495.41;5012061;28;20092;-81
2023/12/05 06:22:12;;;;;;;70.63;28.52;;;-0.70;99.90;;;-0.74;100.00;99491.19;5026998;28;20044;-80
2023/12/05 06:24:38;;;;;;;73.88;31.30;;;-0.70;99.90;;;-0.70;100.00;99487.16;5020608;28;20041;-80
2023/12/05 06:27:04;;;;;;;77.10;32.85;;;-0.70;99.90;;;-0.73;100.00;99482.16;5022015;28;20037;-78
2023/12/05 06:29:30;;;;;;;75.32;31.95;;;-0.70;99.90;;;-0.70;100.00;99497.06;5034182;28;20056;-83
2023/12/05 06:31:56;;;;;;;79.20;30.27;;;-0.70;99.90;;;-0.70;100.00;99494.38;5021669;28;20033;-83
2023/12/05 06:34:22;;;;;;;79.88;31.20;;;-0.70;99.90;;;-0.68;100.00;99484.34;5032710;28;20045;-82
2023/12/05 06:36:47;;;;;;;74.18;31.38;;;-0.70;99.90;;;-0.76;100.00;99491.41;5025178;28;20038;-83
2023/12/05 06:39:13;;;;;;;71.28;29.88;;;-0.70;99.90;;;-0.80;100.00;99471.28;5035764;28;20370;-83
2023/12/05 06:41:39;;;;;;;76.35;31.13;;;-0.70;99.90;;;-0.79;100.00;99483.72;5029819;28;20378;-80
2023/12/05 06:44:05;;;;;;;79.55;33.05;;;-0.70;99.90;;;-0.74;100.00;99481.34;5023978;28;20033;-79
2023/12/05 06:46:30;;;;;;;80.50;31.88;;;-0.70;99.90;;;-0.77;100.00;99480.84;5020293;28;20029;-81
2023/12/05 06:48:57;;;;;;;79.78;31.50;;;-0.70;99.90;;;-0.80;100.00;99487.34;5023728;28;20034;-80
2023/12/05 06:51:23;;;;;;;80.88;32.20;;;-0.70;99.90;;;-0.77;100.00;99488.88;5020422;28;20052;-82
2023/12/05 06:53:49;;;;;;;83.30;31.27;;;-0.70;99.90;;;-0.82;100.00;99492.06;5025672;28;20034;-81
2023/12/05 06:56:16;;;;;;;82.28;30.77;;;-0.70;99.90;;;-0.77;100.00;99484.38;5011071;28;20115;-82
2023/12/05 06:58:42;;;;;;;80.20;31.15;;;-0.70;99.90;;;-0.75;100.00;99479.66;5025540;28;20036;-84
2023/12/05 07:01:08;;;;;;;76.28;32.70;;;-0.70;99.90;;;-0.71;100.00;99482.00;5048560;28;20052;-83
2023/12/05 07:03:34;;;;;;;77.80;31.17;;;-0.70;99.90;;;-0.69;100.00;99477.31;5026628;28;20044;-82
2023/12/05 07:05:59;;;;;;;77.03;30.65;;;-0.70;99.90;;;-0.67;100.00;99480.66;5030562;28;20038;-83
2023/12/05 07:08:26;;;;;;;89.05;33.53;;;-0.70;99.90;;;-0.62;100.00;99483.63;5021000;28;20065;-83
2023/12/05 07:10:52;;;;;;;83.18;31.17;;;-0.60;99.90;;;-0.70;100.00;99483.66;5011494;28;20034;-83
2023/12/05 07:13:18;;;;;;;89.07;33.53;;;-0.60;99.90;;;-0.68;100.00;99497.72;5034327;28;20052;-82
2023/12/05 07:15:44;;;;;;;94.05;34.90;;;-0.70;99.90;;;-0.68;100.00;99489.69;5050948;28;20252;-84
2023/12/05 07:18:10;;;;;;;85.90;33.38;;;-0.70;99.90;;;-0.73;100.00;99480.34;5032396;28;20069;-82
2023/12/05 07:20:36;;;;;;;81.90;34.15;;;-0.60;99.90;;;-0.63;100.00;99500.72;5030029;28;20084;-82
2023/12/05 07:23:02;;;;;;;86.35;33.75;;;-0.70;99.90;;;-0.65;100.00;99487.50;5036674;28;20388;-80
2023/12/05 07:25:28;;;;;;;84.95;33.33;;;-0.60;99.90;;;-0.69;100.00;99478.13;5032582;28;20037;-84
2023/12/05 07:27:54;;;;;;;83.13;32.63;;;-0.60;99.90;;;-0.65;100.00;99486.66;5033981;28;20037;-85
2023/12/05 07:30:20;;;;;;;91.82;35.13;;;-0.60;99.90;;;-0.62;100.00;99494.34;5054059;28;20044;-84
2023/12/05 07:32:46;;;;;;;87.82;35.83;;;-0.60;99.90;;;-0.63;100.00;99495.38;5065505;28;20042;-83
2023/12/05 07:35:11;;;;;;;95.13;35.60;;;-0.60;99.90;;;-0.64;100.00;99496.38;5046135;28;20041;-83
2023/12/05 07:37:37;;;;;;;94.00;36.35;;;-0.60;99.90;;;-0.55;100.00;99495.31;5052773;28;20092;-85
2023/12/05 07:40:06;;;;;;;94.78;35.70;;;-0.60;99.90;;;-0.59;100.00;99502.91;5043189;28;20053;-84
2023/12/05 07:42:32;;;;;;;97.40;37.47;;;-0.50;99.90;;;-0.51;100.00;99503.88;5028229;28;20116;-80
2023/12/05 07:44:58;;;;;;;92.18;36.03;;;-0.50;99.90;;;-0.51;100.00;99504.72;5032148;28;20052;-79
2023/12/05 07:47:24;;;;;;;92.93;36.30;;;-0.50;99.90;;;-0.46;100.00;99510.38;5032657;28;20147;-80
2023/12/05 07:49:50;;;;;;;96.65;34.65;;;-0.50;99.90;;;-0.38;100.00;99511.38;5017568;28;20374;-79
2023/12/05 07:52:16;;;;;;;95.28;35.72;;;-0.40;99.90;;;-0.35;100.00;99519.91;5031248;28;20405;-79
2023/12/05 07:54:42;;;;;;;95.68;37.25;;;-0.40;99.90;;;-0.30;100.00;99516.69;5025203;28;20120;-80
2023/12/05 07:57:08;;;;;;;97.03;36.97;;;-0.40;99.90;;;-0.29;100.00;99518.34;5024014;28;20113;-81
2023/12/05 07:59:34;;;;;;;97.72;37.13;;;-0.30;99.90;;;-0.24;100.00;99523.19;5017000;28;20423;-80
2023/12/05 08:02:00;;;;;;;96.10;35.25;;;-0.30;99.90;;;-0.27;100.00;99523.56;5024910;28;20088;-78
2023/12/05 08:04:26;;;;;;;104.65;37.67;;;-0.30;99.90;;;-0.25;100.00;99517.03;5031613;28;20041;-79
2023/12/05 08:06:52;;;;;;;95.88;35.28;;;-0.20;99.90;;;-0.22;100.00;99527.41;5019622;28;20398;-80
2023/12/05 08:09:17;;;;;;;98.00;37.40;;;-0.20;99.90;;;-0.27;100.00;99519.00;5026532;28;20041;-80
2023/12/05 08:11:43;;;;;;;94.85;35.10;;;-0.20;99.90;;;-0.21;100.00;99520.16;5025736;28;20041;-80
2023/12/05 08:14:09;;;;;;;95.05;34.83;;;-0.20;99.90;;;-0.21;100.00;99521.03;5025413;28;20033;-80
2023/12/05 08:16:35;;;;;;;96.30;34.92;;;-0.20;99.90;;;-0.30;100.00;99508.63;5027483;28;20049;-80
2023/12/05 08:19:00;;;;;;;88.97;33.78;;;-0.20;99.90;;;-0.15;100.00;99523.00;5026156;28;20041;-82
2023/12/05 08:21:26;;;;;;;89.95;33.58;;;-0.20;99.90;;;-0.17;100.00;99530.38;5027951;28;20049;-81
2023/12/05 08:23:52;;;;;;;88.03;33.35;;;-0.20;99.90;;;-0.19;100.00;99527.03;5033350;28;20040;-80
2023/12/05 08:26:18;;;;;;;92.45;34.55;;;-0.20;99.90;;;-0.18;100.00;99523.34;5024004;28;20037;-80
2023/12/05 08:28:43;;;;;;;91.60;35.15;;;-0.10;99.90;;;-0.15;100.00;99528.34;5036320;28;20038;-80
2023/12/05 08:31:09;;;;;;;107.75;35.67;;;-0.10;99.90;;;-0.09;100.00;99524.16;5031840;28;20045;-81
2023/12/05 08:33:35;;;;;;;91.20;34.50;;;-0.10;99.90;;;-0.03;100.00;99528.81;5027111;28;20496;-80
2023/12/05 08:36:06;;;;;;;89.57;33.95;;;0.00;99.90;;;-0.01;100.00;99524.09;5035978;28;20037;-82
2023/12/05 08:38:32;;;;;;;86.82;33.58;;;0.00;99.90;;;-0.06;100.00;99525.63;5020828;28;20593;-79
2023/12/05 08:40:58;;;;;;;86.18;34.35;;;0.00;99.90;;;-0.07;100.00;99532.00;5021584;28;20034;-79
2023/12/05 08:43:23;;;;;;;91.15;35.55;;;0.00;99.90;;;-0.11;100.00;99515.44;5033422;28;20045;-80
2023/12/05 08:45:49;;;;;;;87.05;32.47;;;0.00;99.90;;;-0.07;100.00;99518.59;5028406;28;20533;-81
2023/12/05 08:48:15;;;;;;;90.63;33.17;;;0.00;99.90;;;0.00;100.00;99516.91;5031282;28;20038;-79
2023/12/05 08:50:41;;;;;;;97.85;34.83;;;0.00;99.90;;;0.05;100.00;99519.03;5022859;28;20474;-79
2023/12/05 08:53:08;;;;;;;98.63;36.05;;;0.00;99.90;;;0.08;100.00;99524.91;5021026;28;20084;-79
2023/12/05 08:55:34;;;;;;;99.10;36.13;;;0.00;99.90;;;0.08;100.00;99522.22;5021513;28;20564;-79
2023/12/05 08:58:00;;;;;;;87.03;33.53;;;0.10;99.90;;;0.24;100.00;99529.34;5018818;28;20045;-80
2023/12/05 09:00:25;;;;;;;96.72;35.40;;;0.10;99.90;;;0.24;100.00;99529.34;5026105;28;20076;-81
2023/12/05 09:02:51;;;;;;;92.03;35.45;;;0.20;99.90;;;0.24;100.00;99540.06;5032956;28;20064;-80
2023/12/05 09:05:17;;;;;;;92.03;35.05;;;0.20;99.90;;;0.24;100.00;99531.16;5022814;28;20037;-80
2023/12/05 09:07:42;;;;;;;103.43;37.55;;;0.20;99.90;;;0.29;100.00;99539.56;5031690;28;20045;-79
2023/12/05 09:10:08;;;;;;;99.85;37.38;;;0.30;99.90;;;0.28;100.00;99522.59;5018758;28;20038;-79
2023/12/05 09:12:34;;;;;;;105.07;36.65;;;0.30;99.90;;;0.43;100.00;99540.63;5022112;28;20045;-79
2023/12/05 09:15:00;;;;;;;93.93;34.72;;;0.30;99.90;;;0.35;100.00;99532.63;5023801;28;20037;-80
2023/12/05 09:17:25;;;;;;;92.03;35.35;;;0.30;99.90;;;0.43;100.00;99533.41;5029678;28;20049;-80
2023/12/05 09:19:51;;;;;;;95.32;35.88;;;0.40;99.90;;;0.41;100.00;99539.97;5031070;28;20033;-80
2023/12/05 09:22:17;;;;;;;98.32;35.95;;;0.40;99.90;;;0.49;100.00;99541.75;5039895;28;20124;-80
2023/12/05 09:24:43;;;;;;;104.10;38.55;;;0.40;99.90;;;0.41;100.00;99551.53;5036955;28;20042;-79
2023/12/05 09:27:09;;;;;;;100.82;34.72;;;0.40;99.90;;;0.38;100.00;99543.00;5019434;28;20038;-79
2023/12/05 09:29:35;;;;;;;105.07;35.90;;;0.40;99.90;;;0.41;100.00;99548.84;5026008;28;20034;-80
2023/12/05 09:32:00;;;;;;;104.22;36.30;;;0.40;99.90;;;0.45;100.00;99545.81;5030688;28;20033;-79
2023/12/05 09:34:26;;;;;;;103.47;36.50;;;0.40;99.90;;;0.42;100.00;99553.22;5030431;28;20108;-79
2023/12/05 09:36:52;;;;;;;102.43;35.85;;;0.40;99.90;;;0.51;100.00;99547.78;5031972;28;20087;-81
2023/12/05 09:39:18;;;;;;;97.28;35.45;;;0.40;99.90;;;0.49;100.00;99549.81;5009074;28;20123;-82
2023/12/05 09:42:06;;;;;;;97.03;36.85;;;0.40;99.90;;;0.49;100.00;99547.97;5029542;28;20048;-82
2023/12/05 09:44:35;;;;;;;102.28;36.67;;;0.50;99.90;;;0.54;100.00;99544.75;5028985;28;20064;-80
2023/12/05 09:47:06;;;;;;;104.75;35.65;;;0.50;99.90;;;0.66;100.00;99554.06;5028415;28;20179;-81
2023/12/05 09:49:32;;;;;;;108.38;36.60;;;0.50;99.90;;;0.62;100.00;99550.06;5026187;28;20060;-81
2023/12/05 09:52:00;;;;;;;109.65;36.85;;;0.60;99.90;;;0.65;100.00;99546.16;5029005;28;20394;-81
2023/12/05 09:54:26;;;;;;;106.38;36.25;;;0.60;99.90;;;0.74;100.00;99546.94;5026672;28;20604;-81
2023/12/05 09:56:56;;;;;;;102.18;35.60;;;0.60;99.90;;;0.78;100.00;99553.63;5028510;28;20108;-82
2023/12/05 09:59:23;;;;;;;107.55;38.65;;;0.70;99.90;;;0.71;100.00;99548.16;5030196;28;20056;-78
2023/12/05 10:01:55;;;;;;;96.28;34.63;;;0.70;99.90;;;0.74;100.00;99561.22;5026942;28;20396;-81